createdAt,value
2023-04-20T00:01:09.880Z,13.32
2023-04-20T00:03:38.382Z,13.30
2023-04-20T00:06:05.961Z,13.28
2023-04-20T00:08:33.169Z,13.27
2023-04-20T00:11:00.266Z,13.26
2023-04-20T00:13:27.641Z,13.23
2023-04-20T00:15:54.688Z,13.23
2023-04-20T00:18:21.875Z,13.22
2023-04-20T00:20:48.981Z,13.21
2023-04-20T00:23:15.999Z,13.24
2023-04-20T00:25:43.123Z,13.23
2023-04-20T00:28:10.126Z,13.25
2023-04-20T00:30:37.308Z,13.25
2023-04-20T00:33:04.843Z,13.22
2023-04-20T00:35:32.240Z,13.20
2023-04-20T00:37:59.236Z,13.18
2023-04-20T00:40:26.411Z,13.18
2023-04-20T00:42:53.445Z,13.15
2023-04-20T00:45:22.363Z,13.12
2023-04-20T00:47:49.446Z,13.08
2023-04-20T00:50:17.292Z,13.05
2023-04-20T00:52:45.036Z,13.00
2023-04-20T00:55:12.974Z,13.00
2023-04-20T00:57:41.735Z,12.98
2023-04-20T01:00:09.899Z,12.95
2023-04-20T01:02:37.183Z,12.91
2023-04-20T01:05:08.554Z,12.90
2023-04-20T01:07:36.876Z,12.89
2023-04-20T01:10:04.801Z,12.87
2023-04-20T01:12:31.789Z,12.82
2023-04-20T01:14:58.957Z,12.78
2023-04-20T01:17:26.132Z,12.74
2023-04-20T01:19:53.363Z,12.75
2023-04-20T01:22:21.665Z,12.76
2023-04-20T01:24:49.188Z,12.73
2023-04-20T01:27:17.282Z,12.72
2023-04-20T01:29:45.110Z,12.68
2023-04-20T01:32:12.745Z,12.63
2023-04-20T01:34:39.860Z,12.62
2023-04-20T01:37:08.407Z,12.60
2023-04-20T01:39:40.266Z,12.54
2023-04-20T01:42:07.663Z,12.47
2023-04-20T01:44:34.739Z,12.40
2023-04-20T01:47:02.067Z,12.32
2023-04-20T01:49:29.118Z,12.33
2023-04-20T01:51:56.339Z,12.38
2023-04-20T01:54:23.482Z,12.39
2023-04-20T01:56:50.604Z,12.41
2023-04-20T01:59:17.870Z,12.40
2023-04-20T02:01:45.189Z,12.39
2023-04-20T02:04:12.372Z,12.37
2023-04-20T02:06:41.043Z,12.36
2023-04-20T02:09:09.992Z,12.34
2023-04-20T02:11:37.725Z,12.33
2023-04-20T02:14:06.317Z,12.29
2023-04-20T02:16:34.076Z,12.25
2023-04-20T02:19:01.290Z,12.22
2023-04-20T02:21:28.408Z,12.23
2023-04-20T02:23:55.744Z,12.25
2023-04-20T02:26:22.877Z,12.26
2023-04-20T02:28:50.561Z,12.26
2023-04-20T02:31:17.764Z,12.26
2023-04-20T02:33:47.497Z,12.25
2023-04-20T02:36:14.656Z,12.24
2023-04-20T02:38:41.797Z,12.23
2023-04-20T02:41:09.002Z,12.23
2023-04-20T02:43:37.459Z,12.25
2023-04-20T02:46:05.144Z,12.24
2023-04-20T02:48:32.471Z,12.20
2023-04-20T02:51:00.275Z,12.18
2023-04-20T02:53:33.823Z,12.16
2023-04-20T02:56:19.743Z,12.16
2023-04-20T02:58:52.588Z,12.16
2023-04-20T03:01:23.308Z,12.13
2023-04-20T03:03:57.869Z,12.11
2023-04-20T03:06:25.460Z,12.11
2023-04-20T03:08:56.608Z,12.12
2023-04-20T03:11:48.444Z,12.13
2023-04-20T03:14:29.036Z,12.13
2023-04-20T03:16:56.284Z,12.11
2023-04-20T03:19:26.646Z,12.13
2023-04-20T03:21:53.681Z,12.11
2023-04-20T03:24:20.879Z,12.12
2023-04-20T03:26:47.964Z,12.13
2023-04-20T03:29:18.184Z,12.11
2023-04-20T03:31:46.074Z,12.12
2023-04-20T03:34:13.369Z,12.10
2023-04-20T03:36:41.132Z,12.08
2023-04-20T03:39:08.448Z,12.09
2023-04-20T03:41:35.666Z,12.07
2023-04-20T03:44:02.903Z,12.08
2023-04-20T03:46:30.197Z,12.10
2023-04-20T03:48:57.369Z,12.08
2023-04-20T03:51:24.587Z,12.02
2023-04-20T03:53:51.827Z,12.01
2023-04-20T03:56:19.108Z,11.99
2023-04-20T03:58:46.117Z,11.99
2023-04-20T04:01:17.268Z,12.00
2023-04-20T04:03:47.967Z,11.99
2023-04-20T04:06:15.421Z,11.96
2023-04-20T04:08:43.003Z,11.95
2023-04-20T04:11:10.301Z,12.01
2023-04-20T04:13:37.673Z,12.09
2023-04-20T04:16:07.698Z,12.12
2023-04-20T04:18:35.450Z,12.16
2023-04-20T04:21:10.374Z,12.17
2023-04-20T04:23:39.754Z,12.21
2023-04-20T04:26:15.846Z,12.26
2023-04-20T04:28:46.090Z,12.31
2023-04-20T04:31:18.413Z,12.37
2023-04-20T04:33:49.893Z,12.39
2023-04-20T04:36:27.207Z,12.43
2023-04-20T04:38:56.593Z,12.43
2023-04-20T04:41:23.857Z,12.48
2023-04-20T04:43:51.498Z,12.54
2023-04-20T04:46:25.757Z,12.62
2023-04-20T04:48:52.933Z,12.68
2023-04-20T04:51:19.900Z,12.77
2023-04-20T04:53:47.660Z,12.89
2023-04-20T04:56:14.829Z,13.05
2023-04-20T04:58:41.789Z,13.34
2023-04-20T05:01:08.906Z,13.63
2023-04-20T05:03:36.203Z,14.08
2023-04-20T05:06:03.637Z,14.61
2023-04-20T05:08:30.679Z,15.32
2023-04-20T05:10:58.241Z,15.75
2023-04-20T05:13:25.230Z,15.75
2023-04-20T05:15:53.736Z,15.63
2023-04-20T05:18:20.849Z,15.67
2023-04-20T05:20:48.079Z,16.05
2023-04-20T05:23:15.080Z,16.90
2023-04-20T05:25:42.634Z,17.41
2023-04-20T05:28:09.819Z,18.10
2023-04-20T05:30:37.193Z,18.85
2023-04-20T05:33:04.810Z,18.58
2023-04-20T05:35:32.054Z,18.87
2023-04-20T05:38:02.540Z,19.49
2023-04-20T05:40:29.816Z,20.55
2023-04-20T05:42:56.889Z,21.02
2023-04-20T05:45:24.130Z,21.51
2023-04-20T05:47:56.062Z,22.04
2023-04-20T05:50:27.081Z,22.43
2023-04-20T05:52:54.327Z,22.73
2023-04-20T05:55:22.854Z,22.94
2023-04-20T05:57:52.184Z,23.82
2023-04-20T06:00:19.800Z,24.35
2023-04-20T06:02:47.284Z,23.34
2023-04-20T06:05:14.741Z,23.77
2023-04-20T06:07:41.992Z,24.53
2023-04-20T06:10:09.570Z,24.66
2023-04-20T06:12:36.819Z,24.93
2023-04-20T06:15:06.631Z,25.39
2023-04-20T06:17:36.385Z,24.86
2023-04-20T06:20:05.290Z,25.26
2023-04-20T06:22:33.981Z,25.09
2023-04-20T06:25:01.272Z,23.97
2023-04-20T06:27:28.411Z,24.07
2023-04-20T06:29:55.493Z,23.78
2023-04-20T06:32:22.631Z,24.67
2023-04-20T06:34:50.668Z,24.95
2023-04-20T06:37:17.922Z,25.18
2023-04-20T06:39:45.297Z,25.35
2023-04-20T06:42:12.493Z,25.48
2023-04-20T06:44:41.234Z,25.22
2023-04-20T06:47:08.389Z,24.43
2023-04-20T06:49:37.744Z,24.21
2023-04-20T06:52:04.995Z,23.47
2023-04-20T06:54:32.941Z,23.52
2023-04-20T06:57:00.013Z,23.70
2023-04-20T06:59:27.220Z,23.57
2023-04-20T07:01:54.338Z,23.32
2023-04-20T07:04:22.578Z,22.32
2023-04-20T07:06:51.801Z,21.42
2023-04-20T07:09:21.143Z,20.47
2023-04-20T07:11:48.302Z,19.84
2023-04-20T07:14:15.314Z,19.08
2023-04-20T07:16:45.452Z,18.41
2023-04-20T07:19:13.655Z,18.05
2023-04-20T07:21:40.660Z,17.46
2023-04-20T07:24:07.814Z,17.40
2023-04-20T07:26:34.816Z,17.25
2023-04-20T07:29:01.860Z,16.97
2023-04-20T07:31:29.048Z,16.87
2023-04-20T07:33:56.542Z,16.67
2023-04-20T07:36:23.640Z,16.55
2023-04-20T07:38:50.638Z,16.64
2023-04-20T07:41:17.974Z,17.06
2023-04-20T07:43:45.664Z,18.02
2023-04-20T07:46:21.134Z,18.84
2023-04-20T07:48:51.122Z,19.40
2023-04-20T07:51:18.352Z,19.85
2023-04-20T07:53:45.722Z,20.31
2023-04-20T07:56:12.761Z,21.01
2023-04-20T07:58:41.002Z,21.25
2023-04-20T08:01:08.087Z,21.65
2023-04-20T08:03:35.715Z,21.77
2023-04-20T08:06:03.599Z,22.31
2023-04-20T08:08:30.943Z,21.95
2023-04-20T08:11:01.716Z,21.32
2023-04-20T08:13:29.421Z,22.31
2023-04-20T08:16:02.500Z,22.35
2023-04-20T08:18:30.825Z,22.38
2023-04-20T08:20:58.053Z,22.24
2023-04-20T08:23:28.013Z,22.39
2023-04-20T08:25:55.572Z,22.17
2023-04-20T08:28:33.511Z,21.80
2023-04-20T08:31:01.689Z,21.56
2023-04-20T08:33:29.205Z,21.59
2023-04-20T08:35:56.583Z,21.67
2023-04-20T08:38:33.885Z,21.44
2023-04-20T08:41:01.810Z,20.86
2023-04-20T08:43:28.892Z,20.12
2023-04-20T08:46:01.899Z,19.63
2023-04-20T08:48:34.195Z,19.55
2023-04-20T08:51:05.292Z,19.00
2023-04-20T08:53:33.285Z,18.66
2023-04-20T08:56:00.633Z,18.50
2023-04-20T08:58:32.660Z,18.51
2023-04-20T09:01:03.141Z,17.92
2023-04-20T09:03:38.512Z,17.89
2023-04-20T09:06:07.243Z,18.30
2023-04-20T09:08:42.356Z,18.64
2023-04-20T09:11:23.043Z,18.69
2023-04-20T09:14:10.251Z,18.31
2023-04-20T09:16:39.615Z,17.64
2023-04-20T09:19:09.210Z,17.08
2023-04-20T09:21:36.834Z,16.98
2023-04-20T09:24:08.593Z,16.95
2023-04-20T09:26:36.483Z,17.15
2023-04-20T09:29:16.130Z,17.49
2023-04-20T09:31:43.346Z,17.74
2023-04-20T09:34:10.450Z,17.93
2023-04-20T09:36:38.966Z,17.95
2023-04-20T09:39:17.152Z,17.87
2023-04-20T09:41:44.894Z,18.15
2023-04-20T09:44:13.130Z,18.50
2023-04-20T09:46:41.856Z,18.69
2023-04-20T09:49:11.610Z,18.29
2023-04-20T09:51:47.599Z,18.21
2023-04-20T09:54:16.226Z,18.01
2023-04-20T09:56:43.652Z,17.71
2023-04-20T09:59:12.257Z,17.57
2023-04-20T10:01:39.560Z,17.52
2023-04-20T10:04:09.843Z,17.71
2023-04-20T10:06:37.523Z,18.01
2023-04-20T10:09:07.318Z,18.32
2023-04-20T10:11:52.812Z,18.32
2023-04-20T10:14:25.977Z,18.22
2023-04-20T10:17:08.830Z,18.07
2023-04-20T10:19:46.110Z,17.96
2023-04-20T10:22:25.308Z,18.19
2023-04-20T10:24:52.395Z,18.17
2023-04-20T10:27:21.805Z,18.05
2023-04-20T10:29:49.245Z,18.05
2023-04-20T10:32:27.683Z,18.04
2023-04-20T10:35:08.848Z,17.69
2023-04-20T10:37:36.281Z,17.65
2023-04-20T10:40:07.475Z,17.62
2023-04-20T10:42:47.003Z,17.64
2023-04-20T10:45:14.142Z,17.68
2023-04-20T10:47:41.497Z,17.86
2023-04-20T10:50:09.865Z,18.12
2023-04-20T10:52:40.017Z,18.08
2023-04-20T10:55:18.282Z,18.12
2023-04-20T10:57:46.093Z,18.18
2023-04-20T11:00:39.534Z,18.31
2023-04-20T11:03:06.775Z,18.21
2023-04-20T11:05:34.103Z,18.21
2023-04-20T11:08:04.266Z,18.30
2023-04-20T11:10:42.653Z,18.57
2023-04-20T11:13:25.876Z,18.22
2023-04-20T11:15:53.222Z,18.12
2023-04-20T11:18:21.641Z,18.24
2023-04-20T11:20:53.357Z,18.17
2023-04-20T11:23:21.589Z,18.08
2023-04-20T11:25:52.906Z,18.21
2023-04-20T11:28:20.106Z,18.19
2023-04-20T11:30:47.696Z,18.43
2023-04-20T11:33:14.987Z,18.19
2023-04-20T11:35:43.284Z,18.12
2023-04-20T11:38:10.437Z,18.13
2023-04-20T11:40:37.555Z,18.26
2023-04-20T11:43:05.032Z,18.41
2023-04-20T11:45:36.754Z,18.49
2023-04-20T11:48:05.364Z,18.03
2023-04-20T11:50:32.513Z,17.74
2023-04-20T11:52:59.518Z,17.77
2023-04-20T11:55:26.505Z,17.88
2023-04-20T11:57:53.521Z,17.94
2023-04-20T12:00:20.986Z,18.16
2023-04-20T12:02:48.240Z,18.25
2023-04-20T12:05:15.584Z,18.01
2023-04-20T12:07:43.915Z,17.91
2023-04-20T12:10:11.097Z,17.77
2023-04-20T12:12:38.719Z,17.83
2023-04-20T12:15:06.860Z,17.87
2023-04-20T12:17:34.128Z,17.88
2023-04-20T12:20:01.288Z,17.83
2023-04-20T12:22:28.472Z,17.68
2023-04-20T12:24:55.494Z,17.44
2023-04-20T12:27:22.738Z,17.46
2023-04-20T12:29:49.934Z,17.58
2023-04-20T12:32:16.968Z,17.71
2023-04-20T12:34:44.066Z,17.62
2023-04-20T12:37:11.248Z,17.44
2023-04-20T12:39:38.400Z,17.37
2023-04-20T12:42:05.384Z,17.45
2023-04-20T12:44:32.568Z,17.44
2023-04-20T12:46:59.650Z,17.50
2023-04-20T12:49:26.879Z,17.55
2023-04-20T12:51:53.885Z,17.51
2023-04-20T12:54:20.916Z,17.53
2023-04-20T12:56:48.052Z,17.47
2023-04-20T12:59:15.355Z,17.42
2023-04-20T13:01:42.343Z,17.28
2023-04-20T13:04:09.643Z,17.19
2023-04-20T13:06:37.053Z,17.28
2023-04-20T13:09:04.627Z,17.24
2023-04-20T13:11:31.683Z,17.23
2023-04-20T13:13:58.880Z,17.32
2023-04-20T13:16:25.944Z,17.47
2023-04-20T13:18:53.110Z,17.32
2023-04-20T13:21:20.405Z,17.34
2023-04-20T13:23:47.374Z,17.35
2023-04-20T13:26:14.555Z,17.47
2023-04-20T13:28:41.596Z,17.37
2023-04-20T13:31:08.942Z,17.30
2023-04-20T13:33:36.272Z,17.45
2023-04-20T13:36:03.401Z,17.48
2023-04-20T13:38:30.414Z,17.77
2023-04-20T13:40:57.499Z,17.89
2023-04-20T13:43:25.384Z,17.89
2023-04-20T13:45:52.436Z,17.89
2023-04-20T13:48:19.596Z,17.78
2023-04-20T13:50:47.656Z,17.68
2023-04-20T13:53:14.703Z,17.51
2023-04-20T13:55:41.728Z,17.46
2023-04-20T13:58:08.822Z,17.30
2023-04-20T14:00:35.874Z,17.26
2023-04-20T14:03:05.968Z,17.28
2023-04-20T14:05:34.252Z,17.27
2023-04-20T14:08:01.906Z,17.26
2023-04-20T14:10:29.283Z,17.20
2023-04-20T14:12:56.769Z,17.13
2023-04-20T14:15:23.890Z,17.14
2023-04-20T14:17:52.435Z,17.28
2023-04-20T14:20:19.999Z,17.16
2023-04-20T14:22:47.073Z,17.04
2023-04-20T14:25:14.227Z,16.95
2023-04-20T14:27:41.431Z,16.90
2023-04-20T14:30:09.196Z,17.11
2023-04-20T14:32:36.521Z,17.06
2023-04-20T14:35:05.597Z,17.05
2023-04-20T14:37:33.285Z,17.14
2023-04-20T14:40:00.319Z,17.01
2023-04-20T14:42:27.476Z,16.92
2023-04-20T14:44:54.636Z,16.76
2023-04-20T14:47:21.809Z,16.76
2023-04-20T14:49:49.046Z,16.85
2023-04-20T14:52:16.229Z,16.94
2023-04-20T14:58:00.039Z,16.76
2023-04-20T15:00:30.679Z,16.81
2023-04-20T15:02:58.074Z,16.76
2023-04-20T15:05:26.841Z,16.79
2023-04-20T15:07:54.088Z,16.81
2023-04-20T15:10:21.646Z,16.86
2023-04-20T15:12:49.324Z,16.83
2023-04-20T15:15:16.725Z,16.85
2023-04-20T15:17:46.255Z,16.85
2023-04-20T15:20:15.673Z,16.75
2023-04-20T15:22:42.859Z,16.63
2023-04-20T15:25:10.618Z,16.55
2023-04-20T15:27:37.922Z,16.47
2023-04-20T15:30:06.692Z,16.52
2023-04-20T15:32:34.187Z,16.42
2023-04-20T15:35:01.595Z,16.59
2023-04-20T15:37:29.079Z,16.54
2023-04-20T15:39:56.310Z,16.56
2023-04-20T15:42:23.883Z,16.48
2023-04-20T15:44:50.994Z,16.42
2023-04-20T15:47:18.169Z,16.30
2023-04-20T15:49:45.472Z,16.18
2023-04-20T15:52:12.652Z,16.12
2023-04-20T15:54:40.335Z,16.08
2023-04-20T15:57:07.636Z,16.05
2023-04-20T15:59:34.667Z,16.12
2023-04-20T16:02:01.917Z,16.18
2023-04-20T16:04:29.080Z,16.21
2023-04-20T16:06:56.450Z,16.18
2023-04-20T16:09:24.141Z,16.25
2023-04-20T16:11:51.360Z,16.28
2023-04-20T16:14:18.841Z,16.25
2023-04-20T16:16:46.227Z,16.34
2023-04-20T16:19:16.074Z,16.32
2023-04-20T16:21:43.243Z,16.36
2023-04-20T16:24:10.489Z,16.32
2023-04-20T16:26:39.485Z,16.25
2023-04-20T16:29:08.089Z,16.21
2023-04-20T16:31:36.915Z,16.15
2023-04-20T16:34:04.477Z,16.12
2023-04-20T16:36:32.052Z,16.05
2023-04-20T16:39:02.001Z,16.05
2023-04-20T16:41:29.249Z,16.11
2023-04-20T16:43:56.455Z,16.01
2023-04-20T16:46:23.702Z,16.03
2023-04-20T16:48:51.346Z,16.02
2023-04-20T16:51:18.549Z,16.01
2023-04-20T16:53:45.697Z,15.94
2023-04-20T16:56:13.022Z,15.89
2023-04-20T16:58:40.090Z,15.87
2023-04-20T17:01:08.085Z,15.88
2023-04-20T17:03:35.679Z,15.86
2023-04-20T17:06:07.584Z,15.83
2023-04-20T17:08:35.070Z,15.75
2023-04-20T17:11:02.178Z,15.76
2023-04-20T17:13:29.271Z,15.74
2023-04-20T17:15:56.733Z,15.71
2023-04-20T17:18:23.800Z,15.68
2023-04-20T17:20:51.173Z,15.64
2023-04-20T17:23:19.350Z,15.60
2023-04-20T17:25:47.553Z,15.55
2023-04-20T17:28:14.721Z,15.49
2023-04-20T17:30:42.147Z,15.44
2023-04-20T17:33:12.409Z,15.42
2023-04-20T17:35:39.685Z,15.36
2023-04-20T17:38:06.911Z,15.33
2023-04-20T17:40:34.469Z,15.34
2023-04-20T17:43:02.391Z,15.29
2023-04-20T17:45:29.676Z,15.28
2023-04-20T17:47:56.716Z,15.27
2023-04-20T17:50:24.861Z,15.22
2023-04-20T17:52:51.999Z,15.19
2023-04-20T17:55:19.213Z,15.19
2023-04-20T17:57:46.255Z,15.17
2023-04-20T18:00:14.021Z,15.18
2023-04-20T18:02:41.074Z,15.16
2023-04-20T18:05:08.768Z,15.08
2023-04-20T18:07:36.084Z,15.08
2023-04-20T18:10:04.383Z,15.08
2023-04-20T18:12:31.909Z,15.13
2023-04-20T18:14:59.674Z,15.11
2023-04-20T18:17:27.272Z,15.09
2023-04-20T18:19:54.682Z,15.07
2023-04-20T18:22:22.378Z,15.05
2023-04-20T18:24:49.817Z,14.98
2023-04-20T18:27:17.557Z,14.95
2023-04-20T18:29:45.001Z,14.92
2023-04-20T18:32:16.742Z,14.92
2023-04-20T18:34:44.507Z,14.92
2023-04-20T18:37:15.371Z,14.86
2023-04-20T18:39:43.036Z,14.84
2023-04-20T18:42:10.509Z,14.82
2023-04-20T18:44:37.988Z,14.79
2023-04-20T18:47:05.609Z,14.80
2023-04-20T18:49:35.082Z,14.73
2023-04-20T18:52:03.107Z,14.73
2023-04-20T18:54:30.766Z,14.71
2023-04-20T18:56:58.747Z,14.69
2023-04-20T18:59:26.426Z,14.68
2023-04-20T19:01:54.480Z,14.68
2023-04-20T19:04:23.457Z,14.69
2023-04-20T19:06:51.982Z,14.68
2023-04-20T19:09:20.233Z,14.66
2023-04-20T19:11:49.109Z,14.65
2023-04-20T19:14:17.959Z,14.68
2023-04-20T19:16:46.432Z,14.67
2023-04-20T19:19:14.825Z,14.67
2023-04-20T19:21:44.553Z,14.66
2023-04-20T19:24:13.900Z,14.67
2023-04-20T19:26:44.985Z,14.71
2023-04-20T19:29:12.906Z,14.70
2023-04-20T19:31:42.454Z,14.68
2023-04-20T19:34:10.854Z,14.67
2023-04-20T19:36:38.837Z,14.67
2023-04-20T19:39:07.552Z,14.66
2023-04-20T19:41:36.363Z,14.63
2023-04-20T19:44:07.216Z,14.63
2023-04-20T19:46:35.890Z,14.63
2023-04-20T19:49:04.782Z,14.62
2023-04-20T19:51:33.452Z,14.63
2023-04-20T19:54:03.528Z,14.63
2023-04-20T19:56:32.814Z,14.62
2023-04-20T19:59:00.718Z,14.60
2023-04-20T20:01:30.046Z,14.60
2023-04-20T20:03:58.529Z,14.56
2023-04-20T20:06:27.704Z,14.53
2023-04-20T20:08:57.196Z,14.48
2023-04-20T20:11:25.748Z,14.48
2023-04-20T20:13:53.143Z,14.49
2023-04-20T20:16:20.977Z,14.47
2023-04-20T20:18:48.880Z,14.44
2023-04-20T20:21:16.234Z,14.44
2023-04-20T20:23:43.470Z,14.47
2023-04-20T20:26:11.206Z,14.48
2023-04-20T20:28:39.001Z,14.45
2023-04-20T20:31:06.273Z,14.41
2023-04-20T20:33:33.588Z,14.36
2023-04-20T20:36:01.851Z,14.36
2023-04-20T20:38:31.259Z,14.36
2023-04-20T20:40:58.899Z,14.36
2023-04-20T20:43:26.703Z,14.38
2023-04-20T20:45:54.101Z,14.38
2023-04-20T20:48:21.703Z,14.39
2023-04-20T20:50:48.868Z,14.39
2023-04-20T20:53:17.707Z,14.40
2023-04-20T20:55:44.977Z,14.39
2023-04-20T20:58:12.160Z,14.39
2023-04-20T21:00:39.259Z,14.37
2023-04-20T21:03:07.010Z,14.32
2023-04-20T21:05:35.674Z,14.31
2023-04-20T21:08:03.057Z,14.26
2023-04-20T21:10:30.325Z,14.25
2023-04-20T21:12:57.370Z,14.22
2023-04-20T21:15:24.484Z,14.21
2023-04-20T21:17:51.575Z,14.19
2023-04-20T21:20:18.581Z,14.17
2023-04-20T21:22:45.634Z,14.16
2023-04-20T21:25:12.875Z,14.19
2023-04-20T21:27:40.181Z,14.18
2023-04-20T21:30:07.777Z,14.13
2023-04-20T21:32:34.827Z,14.07
2023-04-20T21:35:02.049Z,14.06
2023-04-20T21:37:29.076Z,14.07
2023-04-20T21:39:56.099Z,14.12
2023-04-20T21:42:23.112Z,14.07
2023-04-20T21:44:50.537Z,14.07
2023-04-20T21:47:17.516Z,14.09
2023-04-20T21:49:44.566Z,14.05
2023-04-20T21:52:11.610Z,14.02
2023-04-20T21:54:40.910Z,14.05
2023-04-20T21:57:08.043Z,14.02
2023-04-20T21:59:35.122Z,14.01
2023-04-20T22:02:02.457Z,14.00
2023-04-20T22:04:29.801Z,14.00
2023-04-20T22:06:57.721Z,13.97
2023-04-20T22:09:24.818Z,13.96
2023-04-20T22:11:52.048Z,13.92
2023-04-20T22:14:19.068Z,13.93
2023-04-20T22:16:46.297Z,13.95
2023-04-20T22:19:13.483Z,13.98
2023-04-20T22:21:40.642Z,14.01
2023-04-20T22:24:07.916Z,13.99
2023-04-20T22:26:35.412Z,13.98
2023-04-20T22:29:02.558Z,13.98
2023-04-20T22:31:29.811Z,14.00
2023-04-20T22:33:57.145Z,14.01
2023-04-20T22:36:24.454Z,14.05
2023-04-20T22:38:51.584Z,14.02
2023-04-20T22:41:18.829Z,14.04
2023-04-20T22:43:46.358Z,14.08
2023-04-20T22:46:13.528Z,14.09
2023-04-20T22:48:41.756Z,14.16
2023-04-20T22:51:09.064Z,14.17
2023-04-20T22:53:36.152Z,14.17
2023-04-20T22:56:07.544Z,14.17
2023-04-20T22:58:35.369Z,14.17
2023-04-20T23:01:03.007Z,14.18
2023-04-20T23:03:32.825Z,14.18
2023-04-20T23:06:00.101Z,14.20
2023-04-20T23:08:28.477Z,14.20
2023-04-20T23:10:55.676Z,14.23
2023-04-20T23:13:26.401Z,14.22
2023-04-20T23:15:53.965Z,14.22
2023-04-20T23:18:21.486Z,14.21
2023-04-20T23:20:48.874Z,14.19
2023-04-20T23:23:16.281Z,14.17
2023-04-20T23:25:43.936Z,14.13
2023-04-20T23:28:11.298Z,14.15
2023-04-20T23:30:38.465Z,14.13
2023-04-20T23:33:05.934Z,14.13
2023-04-20T23:35:33.432Z,14.12
2023-04-20T23:38:01.133Z,14.10
2023-04-20T23:40:28.377Z,14.12
2023-04-20T23:42:55.504Z,14.12
2023-04-20T23:45:23.044Z,14.13
2023-04-20T23:47:50.299Z,14.13
2023-04-20T23:50:17.451Z,14.06
2023-04-20T23:52:44.737Z,14.03
2023-04-20T23:55:11.897Z,14.01
2023-04-20T23:57:39.101Z,13.99
